METAR Data
IDs: Format: Raw Decoded Include TAF

Data at: 1724 UTC 16 Oct 2021

KINK 161653Z AUTO 14014G17KT 10SM CLR 17/00 A3045 RMK AO2 SLP289 T01720000
KINK 161553Z AUTO 15009KT 10SM CLR 15/01 A3046 RMK AO2 SLP294 T01500006
KINK 161453Z AUTO 08003KT 10SM CLR 12/00 A3045 RMK AO2 SLP293 T01170000 53016
KINK 161353Z AUTO 36004KT 10SM CLR 07/M02 A3043 RMK AO2 SLP290 T00671017
KINK 161253Z AUTO 36005KT 10SM CLR 03/M03 A3042 RMK AO2 SLP286 T00331033
KINK 161153Z AUTO 34007KT 10SM CLR 04/M04 A3040 RMK AO2 SLP276 T00391039 10117 20033 53008
KINK 161053Z AUTO 01003KT 10SM CLR 06/M02 A3038 RMK AO2 SLP266 T00561022
KINK 160953Z AUTO 00000KT 10SM CLR 08/M02 A3037 RMK AO2 SLP260 T00831017
KINK 160853Z AUTO 13004KT 10SM CLR 09/M02 A3037 RMK AO2 SLP259 T00891017 51008
KINK 160753Z AUTO 09009KT 10SM CLR 12/M01 A3036 RMK AO2 SLP254 T01171011
KINK 160653Z AUTO 08008KT 10SM CLR 11/M03 A3036 RMK AO2 SLP255 T01061028
KINK 160553Z AUTO 07008KT 10SM CLR 12/M03 A3035 RMK AO2 SLP251 T01171033 10206 20106 402330083 51015
KINK 160453Z AUTO 05007KT 10SM CLR 11/M03 A3034 RMK AO2 SLP249 T01111028
KINK 160353Z AUTO 04006KT 10SM CLR 12/M03 A3032 RMK AO2 SLP245 T01171028
KINK 160253Z AUTO 05007KT 10SM CLR 13/M03 A3030 RMK AO2 SLP239 T01331033 53022
KINK 160153Z AUTO 03007KT 10SM CLR 15/M03 A3027 RMK AO2 SLP230 T01501033
KINK 160053Z AUTO 04007KT 10SM CLR 18/M03 A3025 RMK AO2 SLP220 T01781033
KINK 152353Z AUTO 04010KT 10SM CLR 21/M03 A3023 RMK AO2 SLP212 T02061033 10233 20206 53009
KINK 152253Z AUTO 05012G17KT 10SM CLR 22/M03 A3021 RMK AO2 SLP201 T02221028
KINK 152153Z AUTO 02011G17KT 10SM CLR 23/M02 A3020 RMK AO2 SLP197 T02281022
KINK 152053Z AUTO 02014G18KT 10SM CLR 23/M02 A3020 RMK AO2 SLP198 T02281022 56012
KINK 151953Z AUTO 05006KT 10SM CLR 22/00 A3021 RMK AO2 SLP197 T02220000
KINK 151853Z AUTO 02014G22KT 10SM CLR 21/M01 A3023 RMK AO2 PK WND 01026/1843 SLP204 T02111006
KINK 151753Z AUTO 03016G23KT 10SM CLR 21/00 A3024 RMK AO2 SLP207 T02060000 10206 20083 50010
KINK 151653Z AUTO 01014G22KT 10SM CLR 19/01 A3024 RMK AO2 SLP206 T01940011
KINK 151553Z AUTO 36010KT 10SM CLR 17/01 A3023 RMK AO2 SLP206 T01670011
KINK 151453Z AUTO 36015KT 10SM CLR 14/00 A3021 RMK AO2 SLP198 T01440000 53041
KINK 151353Z AUTO 36012KT 10SM CLR 12/M04 A3016 RMK AO2 SLP183 T01221044
KINK 151253Z AUTO 35010KT 10SM CLR 11/M06 A3011 RMK AO2 SLP164 T01111056 $
KINK 151153Z AUTO 34005KT 10SM CLR 09/M07 A3007 RMK AO2 SLP153 T00941067 10183 20094 53029 $
KINK 151053Z AUTO 34008KT 10SM CLR 12/M07 A3003 RMK AO2 SLP134 T01221067 $
KINK 150953Z AUTO 31008KT 10SM CLR 12/M06 A2999 RMK AO2 SLP120 T01221056 $
KINK 150853Z AUTO 30006KT 10SM CLR 12/M06 A2998 RMK AO2 SLP116 T01171056 53012 $
KINK 150753Z AUTO 24004KT 10SM CLR 16/M05 A2997 RMK AO2 SLP108 T01561050 $
KINK 150653Z AUTO 34009KT 10SM CLR 16/M05 A2995 RMK AO2 SLP100 T01611050 $
KINK 150553Z AUTO 31009KT 10SM CLR 18/M04 A2994 RMK AO2 SLP098 T01831044 10272 20183 403060083 51009 $